createdAt,value
2022-09-24T00:00:37.536Z,0.00
2022-09-24T00:01:37.629Z,0.00
2022-09-24T00:02:37.568Z,0.00
2022-09-24T00:03:37.493Z,0.00
2022-09-24T00:04:37.488Z,0.00
2022-09-24T00:05:37.485Z,0.00
2022-09-24T00:06:37.470Z,0.00
2022-09-24T00:07:37.480Z,0.00
2022-09-24T00:08:37.441Z,0.00
2022-09-24T00:09:37.434Z,0.00
2022-09-24T00:10:37.422Z,0.00
2022-09-24T00:11:37.408Z,0.00
2022-09-24T00:12:37.410Z,0.00
2022-09-24T00:13:37.394Z,0.00
2022-09-24T00:14:37.381Z,0.00
2022-09-24T00:15:37.371Z,0.00
2022-09-24T00:16:37.430Z,0.00
2022-09-24T00:17:37.368Z,0.00
2022-09-24T00:18:37.330Z,0.00
2022-09-24T00:19:37.329Z,0.00
2022-09-24T00:20:37.308Z,0.00
2022-09-24T00:21:37.307Z,0.00
2022-09-24T00:22:37.339Z,0.00
2022-09-24T00:23:37.285Z,0.00
2022-09-24T00:24:37.261Z,0.00
2022-09-24T00:25:37.257Z,0.00
2022-09-24T00:26:37.241Z,0.00
2022-09-24T00:27:37.247Z,0.00
2022-09-24T00:28:37.237Z,0.00
2022-09-24T00:29:37.224Z,0.00
2022-09-24T00:30:37.199Z,0.00
2022-09-24T00:31:37.292Z,0.00
2022-09-24T00:32:37.228Z,0.00
2022-09-24T00:33:37.176Z,0.00
2022-09-24T00:34:37.164Z,0.00
2022-09-24T00:35:37.160Z,0.00
2022-09-24T00:36:37.133Z,0.00
2022-09-24T00:37:37.144Z,0.00
2022-09-24T00:38:37.138Z,0.00
2022-09-24T00:39:37.265Z,0.00
2022-09-24T00:40:37.121Z,0.00
2022-09-24T00:41:37.080Z,0.00
2022-09-24T00:42:37.065Z,0.00
2022-09-24T00:43:37.067Z,0.00
2022-09-24T00:44:37.079Z,0.00
2022-09-24T00:45:37.064Z,0.00
2022-09-24T00:46:37.121Z,0.00
2022-09-24T00:47:37.033Z,0.00
2022-09-24T00:48:37.007Z,0.00
2022-09-24T00:49:36.998Z,0.00
2022-09-24T00:50:36.999Z,0.00
2022-09-24T00:51:36.981Z,0.00
2022-09-24T00:52:36.989Z,0.00
2022-09-24T00:53:36.959Z,0.00
2022-09-24T00:54:36.943Z,0.00
2022-09-24T00:55:36.951Z,0.00
2022-09-24T00:56:36.936Z,0.00
2022-09-24T00:57:36.922Z,0.00
2022-09-24T00:58:36.915Z,0.00
2022-09-24T00:59:36.913Z,0.00
2022-09-24T01:00:36.930Z,0.00
2022-09-24T01:01:36.912Z,0.00
2022-09-24T01:02:36.856Z,0.00
2022-09-24T01:03:36.864Z,0.00
2022-09-24T01:04:36.831Z,0.00
2022-09-24T01:05:36.851Z,0.00
2022-09-24T01:06:36.819Z,0.00
2022-09-24T01:07:36.805Z,0.00
2022-09-24T01:08:36.800Z,0.00
2022-09-24T01:09:36.800Z,0.00
2022-09-24T01:10:36.842Z,0.00
2022-09-24T01:11:36.765Z,0.00
2022-09-24T01:12:36.753Z,0.00
2022-09-24T01:13:40.039Z,0.00
2022-09-24T01:14:36.732Z,0.00
2022-09-24T01:15:36.739Z,0.00
2022-09-24T01:16:36.759Z,0.00
2022-09-24T01:17:36.696Z,0.00
2022-09-24T01:18:36.702Z,0.00
2022-09-24T01:19:36.684Z,0.00
2022-09-24T01:20:36.671Z,0.00
2022-09-24T01:21:36.682Z,0.00
2022-09-24T01:22:36.663Z,0.00
2022-09-24T01:23:36.631Z,0.00
2022-09-24T01:24:36.634Z,0.00
2022-09-24T01:25:36.613Z,0.00
2022-09-24T01:26:36.617Z,0.00
2022-09-24T01:27:36.618Z,0.00
2022-09-24T01:28:36.584Z,0.00
2022-09-24T01:29:36.571Z,0.00
2022-09-24T01:30:36.563Z,0.00
2022-09-24T01:31:36.602Z,0.00
2022-09-24T01:32:36.549Z,0.00
2022-09-24T01:33:36.569Z,0.00
2022-09-24T01:34:36.515Z,0.00
2022-09-24T01:35:36.516Z,0.00
2022-09-24T01:36:36.508Z,0.00
2022-09-24T01:37:36.496Z,0.00
2022-09-24T01:38:36.484Z,0.00
2022-09-24T01:39:36.485Z,0.00
2022-09-24T01:40:36.488Z,0.00
2022-09-24T01:41:36.462Z,0.00
2022-09-24T01:42:36.433Z,0.00
2022-09-24T01:43:36.436Z,0.00
2022-09-24T01:44:36.424Z,0.00
2022-09-24T01:45:36.418Z,0.00
2022-09-24T01:46:36.464Z,0.00
2022-09-24T01:47:36.381Z,0.00
2022-09-24T01:48:36.643Z,0.00
2022-09-24T01:49:36.376Z,0.00
2022-09-24T01:50:36.369Z,0.00
2022-09-24T01:51:36.345Z,0.00
2022-09-24T01:52:36.330Z,0.00
2022-09-24T01:53:36.335Z,0.00
2022-09-24T01:54:36.312Z,0.00
2022-09-24T01:55:36.330Z,0.00
2022-09-24T01:56:36.290Z,0.00
2022-09-24T01:57:36.285Z,0.00
2022-09-24T01:58:36.258Z,0.00
2022-09-24T01:59:36.282Z,0.00
2022-09-24T02:00:36.280Z,0.00
2022-09-24T02:01:36.355Z,0.00
2022-09-24T02:02:36.225Z,0.00
2022-09-24T02:03:36.209Z,0.00
2022-09-24T02:04:36.216Z,0.00
2022-09-24T02:05:36.186Z,0.00
2022-09-24T02:06:36.198Z,0.00
2022-09-24T02:07:36.172Z,0.00
2022-09-24T02:08:36.165Z,0.00
2022-09-24T02:09:36.152Z,0.00
2022-09-24T02:10:36.129Z,0.00
2022-09-24T02:11:36.140Z,0.00
2022-09-24T02:12:36.117Z,0.00
2022-09-24T02:13:36.104Z,0.00
2022-09-24T02:14:36.102Z,0.00
2022-09-24T02:15:36.081Z,0.00
2022-09-24T02:16:36.137Z,0.00
2022-09-24T02:17:36.079Z,0.00
2022-09-24T02:18:36.071Z,0.00
2022-09-24T02:19:36.031Z,0.00
2022-09-24T02:20:36.022Z,0.00
2022-09-24T02:21:36.035Z,0.00
2022-09-24T02:22:36.013Z,0.00
2022-09-24T02:23:35.994Z,0.00
2022-09-24T02:24:36.006Z,0.00
2022-09-24T02:25:35.976Z,0.00
2022-09-24T02:26:35.971Z,0.00
2022-09-24T02:27:35.975Z,0.00
2022-09-24T02:28:35.956Z,0.00
2022-09-24T02:29:35.935Z,0.00
2022-09-24T02:30:35.916Z,0.00
2022-09-24T02:31:36.078Z,0.00
2022-09-24T02:32:35.906Z,0.00
2022-09-24T02:33:35.882Z,0.00
2022-09-24T02:34:35.884Z,0.00
2022-09-24T02:35:35.863Z,0.00
2022-09-24T02:36:35.849Z,0.00
2022-09-24T02:37:35.855Z,0.00
2022-09-24T02:38:35.827Z,0.00
2022-09-24T02:39:35.837Z,0.00
2022-09-24T02:40:35.887Z,0.00
2022-09-24T02:41:35.818Z,0.00
2022-09-24T02:42:35.792Z,0.00
2022-09-24T02:43:35.793Z,0.00
2022-09-24T02:44:35.774Z,0.00
2022-09-24T02:45:35.763Z,0.00
2022-09-24T02:46:35.802Z,0.00
2022-09-24T02:47:35.747Z,0.00
2022-09-24T02:48:35.734Z,0.00
2022-09-24T02:49:35.722Z,0.00
2022-09-24T02:50:35.735Z,0.00
2022-09-24T02:51:35.700Z,0.00
2022-09-24T02:52:35.680Z,0.00
2022-09-24T02:53:35.690Z,0.00
2022-09-24T02:54:35.684Z,0.00
2022-09-24T02:55:35.668Z,0.00
2022-09-24T02:56:35.661Z,0.00
2022-09-24T02:57:35.640Z,0.00
2022-09-24T02:58:35.613Z,0.00
2022-09-24T02:59:35.621Z,0.00
2022-09-24T03:00:35.621Z,0.00
2022-09-24T03:01:35.789Z,0.00
2022-09-24T03:02:35.731Z,0.00
2022-09-24T03:03:35.588Z,0.00
2022-09-24T03:04:35.576Z,0.00
2022-09-24T03:05:35.555Z,0.00
2022-09-24T03:06:35.552Z,0.00
2022-09-24T03:07:35.541Z,0.00
2022-09-24T03:08:35.519Z,0.00
2022-09-24T03:09:35.507Z,0.00
2022-09-24T03:10:35.512Z,0.00
2022-09-24T03:11:35.485Z,0.00
2022-09-24T03:12:35.491Z,0.00
2022-09-24T03:13:35.473Z,0.00
2022-09-24T03:14:35.463Z,0.00
2022-09-24T03:15:35.445Z,0.00
2022-09-24T03:16:35.482Z,0.00
2022-09-24T03:17:35.443Z,0.00
2022-09-24T03:18:35.410Z,0.00
2022-09-24T03:19:35.391Z,0.00
2022-09-24T03:20:35.394Z,0.00
2022-09-24T03:21:35.367Z,0.00
2022-09-24T03:22:35.367Z,0.00
2022-09-24T03:23:35.372Z,0.00
2022-09-24T03:24:35.350Z,0.00
2022-09-24T03:25:35.320Z,0.00
2022-09-24T03:26:35.332Z,0.00
2022-09-24T03:27:35.332Z,0.00
2022-09-24T03:28:35.335Z,0.00
2022-09-24T03:29:35.300Z,0.00
2022-09-24T03:30:35.302Z,0.00
2022-09-24T03:31:35.315Z,0.00
2022-09-24T03:32:35.266Z,0.00
2022-09-24T03:33:35.314Z,0.00
2022-09-24T03:34:35.244Z,0.00
2022-09-24T03:35:35.225Z,0.00
2022-09-24T03:36:35.230Z,0.00
2022-09-24T03:37:35.204Z,0.00
2022-09-24T03:38:35.207Z,0.00
2022-09-24T03:39:35.201Z,0.00
2022-09-24T03:40:35.236Z,0.00
2022-09-24T03:41:35.175Z,0.00
2022-09-24T03:42:35.145Z,0.00
2022-09-24T03:43:35.129Z,0.00
2022-09-24T03:44:35.147Z,0.00
2022-09-24T03:45:35.113Z,0.00
2022-09-24T03:46:35.184Z,0.00
2022-09-24T03:47:35.091Z,0.00
2022-09-24T03:48:35.081Z,0.00
2022-09-24T03:49:35.104Z,0.00
2022-09-24T03:50:35.084Z,0.00
2022-09-24T03:51:35.041Z,0.00
2022-09-24T03:52:35.044Z,0.00
2022-09-24T03:53:35.029Z,0.00
2022-09-24T03:54:35.036Z,0.00
2022-09-24T03:55:35.037Z,0.00
2022-09-24T03:56:35.020Z,0.00
2022-09-24T03:57:34.993Z,0.00
2022-09-24T03:58:34.982Z,0.00
2022-09-24T03:59:34.984Z,0.00
2022-09-24T04:00:38.924Z,0.00
2022-09-24T04:01:35.001Z,0.00
2022-09-24T04:02:34.988Z,0.00
2022-09-24T04:03:35.002Z,0.00
2022-09-24T04:04:34.917Z,0.00
2022-09-24T04:05:34.930Z,0.00
2022-09-24T04:06:34.908Z,0.00
2022-09-24T04:07:35.529Z,0.00
2022-09-24T04:08:34.860Z,0.00
2022-09-24T04:09:34.858Z,0.00
2022-09-24T04:10:35.014Z,0.00
2022-09-24T04:11:34.854Z,0.00
2022-09-24T04:12:34.843Z,0.00
2022-09-24T04:13:34.804Z,0.00
2022-09-24T04:14:35.489Z,0.00
2022-09-24T04:15:34.793Z,0.00
2022-09-24T04:16:34.886Z,0.00
2022-09-24T04:17:34.787Z,0.00
2022-09-24T04:18:39.077Z,0.00
2022-09-24T04:19:34.740Z,0.00
2022-09-24T04:20:34.743Z,0.00
2022-09-24T04:21:34.730Z,0.00
2022-09-24T04:22:34.747Z,0.00
2022-09-24T04:23:34.773Z,0.00
2022-09-24T04:24:34.697Z,0.00
2022-09-24T04:25:34.678Z,0.00
2022-09-24T04:26:34.747Z,0.00
2022-09-24T04:27:34.716Z,0.00
2022-09-24T04:28:34.677Z,0.00
2022-09-24T04:29:34.680Z,0.00
2022-09-24T04:30:34.633Z,0.00
2022-09-24T04:31:34.659Z,0.00
2022-09-24T04:32:34.614Z,0.00
2022-09-24T04:33:34.693Z,0.00
2022-09-24T04:34:34.607Z,0.00
2022-09-24T04:35:34.570Z,0.00
2022-09-24T04:36:35.350Z,0.00
2022-09-24T04:37:34.559Z,0.00
2022-09-24T04:38:34.586Z,0.00
2022-09-24T04:39:34.541Z,0.00
2022-09-24T04:40:34.728Z,0.00
2022-09-24T04:41:34.585Z,0.00
2022-09-24T04:42:34.513Z,0.00
2022-09-24T04:43:34.527Z,0.00
2022-09-24T04:44:34.492Z,0.00
2022-09-24T04:45:34.522Z,0.00
2022-09-24T04:46:34.699Z,0.00
2022-09-24T04:47:34.449Z,0.00
2022-09-24T04:48:34.453Z,0.00
2022-09-24T04:49:34.442Z,0.00
2022-09-24T04:50:34.476Z,0.00
2022-09-24T04:51:34.403Z,0.00
2022-09-24T04:52:34.389Z,0.00
2022-09-24T04:53:34.383Z,0.00
2022-09-24T04:54:34.381Z,0.00
2022-09-24T04:55:34.388Z,0.00
2022-09-24T04:56:34.351Z,0.00
2022-09-24T04:57:34.339Z,0.00
2022-09-24T04:58:34.336Z,0.00
2022-09-24T04:59:34.316Z,0.00
2022-09-24T05:00:34.331Z,0.00
2022-09-24T05:01:34.531Z,0.00
2022-09-24T05:02:34.514Z,0.00
2022-09-24T05:03:34.283Z,0.00
2022-09-24T05:04:34.277Z,0.00
2022-09-24T05:05:34.270Z,0.00
2022-09-24T05:06:34.251Z,0.00
2022-09-24T05:07:34.289Z,0.00
2022-09-24T05:08:34.221Z,0.00
2022-09-24T05:09:34.211Z,0.00
2022-09-24T05:10:34.215Z,0.00
2022-09-24T05:11:34.199Z,0.00
2022-09-24T05:12:34.830Z,0.00
2022-09-24T05:13:34.170Z,0.00
2022-09-24T05:14:34.181Z,0.00
2022-09-24T05:15:34.154Z,0.00
2022-09-24T05:16:34.219Z,0.00
2022-09-24T05:17:34.137Z,0.00
2022-09-24T05:18:34.125Z,0.00
2022-09-24T05:19:34.099Z,0.00
2022-09-24T05:20:34.094Z,0.00
2022-09-24T05:21:34.088Z,0.00
2022-09-24T05:22:34.108Z,0.00
2022-09-24T05:23:34.107Z,0.00
2022-09-24T05:24:34.049Z,0.00
2022-09-24T05:25:34.136Z,0.00
2022-09-24T05:26:34.099Z,0.00
2022-09-24T05:27:34.474Z,0.00
2022-09-24T05:28:34.015Z,0.00
2022-09-24T05:29:34.003Z,0.00
2022-09-24T05:30:33.995Z,0.00
2022-09-24T05:31:34.055Z,0.00
2022-09-24T05:32:34.086Z,0.00
2022-09-24T05:33:34.017Z,0.00
2022-09-24T05:34:33.952Z,5.62
2022-09-24T05:35:33.956Z,5.62
2022-09-24T05:36:33.932Z,5.62
2022-09-24T05:37:33.916Z,5.62
2022-09-24T05:38:33.910Z,5.62
2022-09-24T05:39:34.506Z,5.62
2022-09-24T05:40:33.959Z,5.62
2022-09-24T05:41:33.870Z,5.62
2022-09-24T05:42:33.864Z,5.62
2022-09-24T05:43:33.960Z,5.62
2022-09-24T05:44:33.839Z,5.62
2022-09-24T05:45:33.839Z,5.62
2022-09-24T05:46:33.889Z,5.62
2022-09-24T05:47:33.813Z,5.62
2022-09-24T05:48:33.807Z,5.62
2022-09-24T05:49:33.784Z,5.62
2022-09-24T05:50:33.874Z,5.62
2022-09-24T05:51:33.759Z,5.62
2022-09-24T05:52:33.771Z,5.62
2022-09-24T05:53:33.985Z,5.62
2022-09-24T05:54:33.744Z,5.62
2022-09-24T05:55:33.765Z,5.62
2022-09-24T05:56:33.712Z,5.62
2022-09-24T05:57:33.699Z,5.62
2022-09-24T05:58:33.693Z,5.62
2022-09-24T05:59:33.695Z,5.62
2022-09-24T06:00:33.724Z,5.62
2022-09-24T06:01:33.735Z,5.62
2022-09-24T06:02:33.765Z,5.62
2022-09-24T06:03:33.720Z,5.62
2022-09-24T06:04:33.731Z,5.62
2022-09-24T06:05:33.821Z,5.62
2022-09-24T06:06:33.619Z,5.62
2022-09-24T06:07:33.599Z,5.62
2022-09-24T06:08:33.620Z,5.62
2022-09-24T06:09:33.584Z,5.62
2022-09-24T06:10:33.680Z,5.62
2022-09-24T06:11:39.044Z,5.62
2022-09-24T06:12:33.556Z,5.62
2022-09-24T06:13:33.638Z,5.62
2022-09-24T06:14:33.522Z,5.62
2022-09-24T06:15:33.532Z,5.62
2022-09-24T06:16:33.578Z,5.62
2022-09-24T06:17:33.489Z,11.25
2022-09-24T06:18:33.496Z,11.25
2022-09-24T06:19:33.472Z,11.25
2022-09-24T06:20:33.461Z,11.25
2022-09-24T06:21:33.483Z,11.25
2022-09-24T06:22:33.446Z,11.25
2022-09-24T06:23:33.426Z,11.25
2022-09-24T06:24:33.419Z,11.25
2022-09-24T06:25:33.422Z,11.25
2022-09-24T06:26:33.400Z,11.25
2022-09-24T06:27:33.385Z,11.25
2022-09-24T06:28:33.389Z,11.25
2022-09-24T06:29:33.374Z,11.25
2022-09-24T06:30:33.371Z,11.25
2022-09-24T06:31:33.385Z,11.25
2022-09-24T06:32:33.335Z,11.25
2022-09-24T06:33:33.308Z,11.25
2022-09-24T06:34:33.304Z,11.25
2022-09-24T06:35:33.298Z,11.25
2022-09-24T06:36:33.294Z,11.25
2022-09-24T06:37:33.262Z,11.25
2022-09-24T06:38:33.315Z,11.25
2022-09-24T06:39:33.238Z,16.88
2022-09-24T06:40:37.134Z,16.88
2022-09-24T06:41:33.272Z,16.88
2022-09-24T06:42:33.214Z,16.88
2022-09-24T06:43:33.198Z,16.88
2022-09-24T06:44:33.186Z,16.88
2022-09-24T06:45:33.198Z,16.88
2022-09-24T06:46:33.281Z,16.88
2022-09-24T06:47:33.167Z,16.88
2022-09-24T06:48:33.157Z,16.88
2022-09-24T06:49:34.416Z,16.88
2022-09-24T06:50:33.139Z,16.88
2022-09-24T06:51:33.112Z,16.88
2022-09-24T06:52:33.977Z,16.88
2022-09-24T06:53:33.090Z,16.88
2022-09-24T06:54:33.087Z,16.88
2022-09-24T06:55:33.203Z,16.88
2022-09-24T06:56:33.079Z,16.88
2022-09-24T06:57:33.356Z,16.88
2022-09-24T06:58:33.061Z,16.88
2022-09-24T06:59:33.056Z,16.88
2022-09-24T07:00:33.111Z,16.88
2022-09-24T07:01:33.206Z,16.88
2022-09-24T07:02:33.009Z,16.88
2022-09-24T07:03:32.976Z,16.88
2022-09-24T07:04:32.986Z,16.88
2022-09-24T07:05:32.958Z,16.88
2022-09-24T07:06:32.963Z,16.88
2022-09-24T07:07:32.934Z,16.88
2022-09-24T07:08:32.933Z,16.88
2022-09-24T07:09:32.953Z,16.88
2022-09-24T07:10:32.900Z,16.88
2022-09-24T07:11:32.887Z,16.88
2022-09-24T07:12:32.908Z,16.88
2022-09-24T07:13:32.927Z,16.88
2022-09-24T07:14:32.878Z,16.88
2022-09-24T07:15:32.849Z,16.88
2022-09-24T07:16:32.903Z,16.88
2022-09-24T07:17:34.051Z,16.88
2022-09-24T07:18:32.821Z,16.88
2022-09-24T07:19:32.812Z,16.88
2022-09-24T07:20:32.808Z,16.88
2022-09-24T07:21:32.782Z,16.88
2022-09-24T07:22:32.817Z,16.88
2022-09-24T07:23:32.769Z,16.88
2022-09-24T07:24:32.742Z,16.88
2022-09-24T07:25:32.776Z,11.25
2022-09-24T07:26:32.757Z,11.25
2022-09-24T07:27:32.731Z,11.25
2022-09-24T07:28:32.705Z,11.25
2022-09-24T07:29:32.698Z,11.25
2022-09-24T07:30:32.686Z,11.25
2022-09-24T07:31:32.747Z,11.25
2022-09-24T07:32:32.658Z,11.25
2022-09-24T07:33:32.666Z,11.25
2022-09-24T07:34:32.642Z,11.25
2022-09-24T07:35:32.632Z,11.25
2022-09-24T07:36:32.627Z,11.25
2022-09-24T07:37:32.619Z,11.25
2022-09-24T07:38:32.600Z,11.25
2022-09-24T07:39:32.606Z,11.25
2022-09-24T07:40:32.659Z,11.25
2022-09-24T07:41:32.572Z,16.88
2022-09-24T07:42:32.557Z,16.88
2022-09-24T07:43:32.543Z,16.88
2022-09-24T07:44:32.538Z,16.88
2022-09-24T07:45:32.579Z,16.88
2022-09-24T07:46:33.541Z,16.88
2022-09-24T07:47:32.499Z,16.88
2022-09-24T07:48:32.508Z,16.88
2022-09-24T07:49:32.509Z,16.88
2022-09-24T07:50:32.474Z,16.88
2022-09-24T07:51:32.482Z,16.88
2022-09-24T07:52:32.445Z,16.88
2022-09-24T07:53:32.439Z,16.88
2022-09-24T07:54:32.423Z,16.88
2022-09-24T07:55:32.408Z,16.88
2022-09-24T07:56:32.412Z,22.50
2022-09-24T07:57:32.401Z,22.50
2022-09-24T07:58:32.413Z,22.50
2022-09-24T07:59:32.380Z,22.50
2022-09-24T08:00:32.366Z,22.50
2022-09-24T08:01:32.436Z,22.50
2022-09-24T08:02:32.343Z,22.50
2022-09-24T08:03:32.368Z,22.50
2022-09-24T08:04:32.310Z,22.50
2022-09-24T08:05:32.330Z,22.50
2022-09-24T08:06:37.415Z,22.50
2022-09-24T08:07:32.290Z,22.50
2022-09-24T08:08:32.318Z,22.50
2022-09-24T08:09:32.269Z,22.50
2022-09-24T08:10:32.242Z,22.50
2022-09-24T08:11:32.238Z,22.50
2022-09-24T08:12:32.223Z,22.50
2022-09-24T08:13:32.220Z,22.50
2022-09-24T08:14:32.219Z,22.50
2022-09-24T08:15:32.202Z,22.50
2022-09-24T08:16:32.242Z,22.50
2022-09-24T08:17:32.177Z,22.50
2022-09-24T08:18:32.161Z,22.50
2022-09-24T08:19:32.162Z,22.50
2022-09-24T08:20:32.139Z,22.50
2022-09-24T08:21:32.131Z,22.50
2022-09-24T08:22:32.225Z,22.50
2022-09-24T08:23:32.109Z,22.50
2022-09-24T08:24:32.115Z,22.50
2022-09-24T08:25:32.096Z,28.12
2022-09-24T08:26:32.072Z,28.12
2022-09-24T08:27:32.070Z,28.12
2022-09-24T08:28:32.051Z,28.12
2022-09-24T08:29:32.054Z,28.12
2022-09-24T08:30:32.051Z,28.12
2022-09-24T08:31:32.177Z,28.12
2022-09-24T08:32:32.001Z,28.12
2022-09-24T08:33:32.010Z,28.12
2022-09-24T08:34:31.998Z,28.12
2022-09-24T08:35:31.990Z,28.12
2022-09-24T08:36:31.967Z,28.12
2022-09-24T08:37:31.956Z,28.12
2022-09-24T08:38:31.936Z,33.75
2022-09-24T08:39:31.956Z,33.75
2022-09-24T08:40:32.002Z,33.75
2022-09-24T08:41:31.954Z,33.75
2022-09-24T08:42:31.908Z,33.75
2022-09-24T08:43:31.936Z,33.75
2022-09-24T08:44:31.893Z,33.75
2022-09-24T08:45:31.883Z,33.75
2022-09-24T08:46:31.914Z,33.75
2022-09-24T08:47:31.860Z,33.75
2022-09-24T08:48:31.837Z,33.75
2022-09-24T08:49:31.847Z,28.12
2022-09-24T08:50:31.834Z,28.12
2022-09-24T08:51:33.506Z,28.12
2022-09-24T08:52:31.903Z,28.12
2022-09-24T08:53:31.789Z,28.12
2022-09-24T08:54:31.799Z,28.12
2022-09-24T08:55:31.764Z,28.12
2022-09-24T08:56:31.754Z,28.12
2022-09-24T08:57:31.742Z,28.12
2022-09-24T08:58:31.752Z,28.12
2022-09-24T08:59:31.750Z,28.12
2022-09-24T09:00:31.702Z,28.12
2022-09-24T09:01:31.915Z,28.12
2022-09-24T09:02:31.860Z,28.12
2022-09-24T09:03:31.674Z,33.75
2022-09-24T09:04:31.666Z,33.75
2022-09-24T09:05:31.667Z,33.75
2022-09-24T09:06:31.645Z,33.75
2022-09-24T09:07:31.638Z,33.75
2022-09-24T09:08:54.965Z,33.75
2022-09-24T09:09:31.718Z,33.75
2022-09-24T09:10:31.675Z,33.75
2022-09-24T09:11:31.588Z,33.75
2022-09-24T09:12:31.614Z,33.75
2022-09-24T09:13:31.580Z,33.75
2022-09-24T09:14:31.849Z,33.75
2022-09-24T09:15:31.568Z,33.75
2022-09-24T09:16:31.590Z,33.75
2022-09-24T09:17:31.528Z,33.75
2022-09-24T09:18:31.518Z,33.75
2022-09-24T09:19:31.500Z,33.75
2022-09-24T09:20:31.486Z,33.75
2022-09-24T09:21:31.484Z,33.75
2022-09-24T09:22:31.465Z,33.75
2022-09-24T09:23:31.546Z,33.75
2022-09-24T09:24:31.449Z,33.75
2022-09-24T09:25:31.440Z,33.75
2022-09-24T09:26:31.461Z,33.75
2022-09-24T09:27:31.424Z,33.75
2022-09-24T09:28:31.403Z,33.75
2022-09-24T09:29:31.409Z,33.75
2022-09-24T09:30:31.389Z,33.75
2022-09-24T09:31:31.486Z,33.75
2022-09-24T09:32:31.360Z,33.75
2022-09-24T09:33:31.348Z,33.75
2022-09-24T09:34:31.342Z,33.75
2022-09-24T09:35:31.347Z,33.75
2022-09-24T09:36:31.345Z,33.75
2022-09-24T09:37:31.307Z,33.75
2022-09-24T09:38:31.301Z,33.75
2022-09-24T09:39:31.296Z,33.75
2022-09-24T09:40:32.307Z,33.75
2022-09-24T09:41:31.289Z,33.75
2022-09-24T09:42:31.263Z,33.75
2022-09-24T09:43:31.242Z,33.75
2022-09-24T09:44:31.234Z,33.75
2022-09-24T09:45:31.230Z,33.75
2022-09-24T09:46:31.261Z,33.75
2022-09-24T09:47:31.230Z,33.75
2022-09-24T09:48:31.226Z,33.75
2022-09-24T09:49:31.192Z,33.75
2022-09-24T09:50:31.177Z,33.75
2022-09-24T09:51:31.156Z,28.12
2022-09-24T09:52:31.157Z,28.12
2022-09-24T09:53:31.143Z,28.12
2022-09-24T09:54:31.113Z,33.75
2022-09-24T09:55:31.132Z,33.75
2022-09-24T09:56:31.094Z,33.75
2022-09-24T09:57:31.105Z,33.75
2022-09-24T09:58:31.081Z,33.75
2022-09-24T09:59:31.071Z,33.75
2022-09-24T10:00:31.056Z,33.75
2022-09-24T10:01:31.043Z,33.75
2022-09-24T10:02:31.220Z,33.75
2022-09-24T10:03:31.145Z,33.75
2022-09-24T10:04:31.013Z,33.75
2022-09-24T10:05:31.007Z,33.75
2022-09-24T10:06:30.982Z,33.75
2022-09-24T10:07:31.017Z,33.75
2022-09-24T10:08:30.980Z,28.12
2022-09-24T10:09:30.959Z,28.12
2022-09-24T10:10:30.945Z,28.12
2022-09-24T10:11:30.940Z,22.50
2022-09-24T10:12:30.923Z,28.12
2022-09-24T10:13:30.948Z,28.12
2022-09-24T10:14:30.901Z,28.12
2022-09-24T10:15:30.889Z,28.12
2022-09-24T10:16:30.902Z,33.75
2022-09-24T10:17:30.869Z,22.50
2022-09-24T10:18:30.866Z,33.75
2022-09-24T10:19:30.849Z,33.75
2022-09-24T10:20:30.835Z,33.75
2022-09-24T10:21:30.831Z,33.75
2022-09-24T10:22:30.823Z,33.75
2022-09-24T10:23:30.815Z,33.75
2022-09-24T10:24:30.788Z,33.75
2022-09-24T10:25:30.786Z,33.75
2022-09-24T10:26:30.775Z,33.75
2022-09-24T10:27:30.757Z,33.75
2022-09-24T10:28:30.767Z,33.75
2022-09-24T10:29:30.764Z,33.75
2022-09-24T10:30:30.763Z,33.75
2022-09-24T10:31:30.756Z,33.75
2022-09-24T10:32:30.732Z,33.75
2022-09-24T10:33:30.712Z,33.75
2022-09-24T10:34:30.696Z,33.75
2022-09-24T10:35:30.686Z,33.75
2022-09-24T10:36:30.693Z,33.75
2022-09-24T10:37:30.661Z,33.75
2022-09-24T10:38:30.653Z,33.75
2022-09-24T10:39:30.635Z,33.75
2022-09-24T10:40:30.658Z,33.75
2022-09-24T10:41:30.627Z,33.75
2022-09-24T10:42:30.592Z,33.75
2022-09-24T10:43:30.595Z,33.75
2022-09-24T10:44:30.582Z,39.38
2022-09-24T10:45:30.564Z,39.38
2022-09-24T10:46:30.597Z,39.38
2022-09-24T10:47:30.576Z,39.38
2022-09-24T10:48:30.557Z,39.38
2022-09-24T10:49:30.516Z,45.00
2022-09-24T10:50:30.505Z,45.00
2022-09-24T10:51:30.505Z,45.00
2022-09-24T10:52:30.498Z,45.00
2022-09-24T10:53:30.472Z,45.00
2022-09-24T10:54:30.473Z,45.00
2022-09-24T10:55:30.461Z,45.00
2022-09-24T10:56:30.447Z,45.00
2022-09-24T10:57:30.442Z,45.00
2022-09-24T10:58:30.422Z,50.62
2022-09-24T10:59:30.442Z,50.62
2022-09-24T11:00:30.423Z,50.62
2022-09-24T11:01:30.468Z,50.62
2022-09-24T11:02:30.411Z,50.62
2022-09-24T11:03:30.367Z,50.62
2022-09-24T11:04:31.163Z,50.62
2022-09-24T11:05:30.357Z,50.62
2022-09-24T11:06:30.339Z,50.62
2022-09-24T11:07:30.336Z,50.62
2022-09-24T11:08:30.324Z,50.62
2022-09-24T11:09:30.309Z,50.62
2022-09-24T11:10:30.296Z,50.62
2022-09-24T11:11:30.282Z,50.62
2022-09-24T11:12:30.279Z,50.62
2022-09-24T11:13:30.266Z,50.62
2022-09-24T11:14:30.303Z,50.62
2022-09-24T11:15:30.260Z,56.25
2022-09-24T11:16:30.639Z,56.25
2022-09-24T11:17:30.221Z,56.25
2022-09-24T11:18:30.247Z,56.25
2022-09-24T11:19:30.221Z,56.25
2022-09-24T11:20:30.190Z,56.25
2022-09-24T11:21:30.228Z,56.25
2022-09-24T11:22:30.169Z,56.25
2022-09-24T11:23:30.171Z,61.88
2022-09-24T11:24:30.143Z,61.88
2022-09-24T11:25:30.152Z,61.88
2022-09-24T11:26:30.129Z,67.50
2022-09-24T11:27:30.132Z,67.50
2022-09-24T11:28:30.217Z,73.12
2022-09-24T11:29:34.735Z,73.12
2022-09-24T11:30:30.095Z,67.50
2022-09-24T11:31:30.140Z,61.88
2022-09-24T11:32:30.115Z,61.88
2022-09-24T11:33:30.046Z,61.88
2022-09-24T11:34:30.038Z,61.88
2022-09-24T11:35:30.033Z,61.88
2022-09-24T11:36:30.019Z,61.88
2022-09-24T11:37:30.038Z,61.88
2022-09-24T11:38:30.012Z,61.88
2022-09-24T11:39:29.983Z,61.88
2022-09-24T11:40:30.090Z,56.25
2022-09-24T11:41:29.964Z,56.25
2022-09-24T11:42:30.056Z,56.25
2022-09-24T11:43:29.941Z,56.25
2022-09-24T11:44:29.919Z,50.62
2022-09-24T11:45:29.916Z,50.62
2022-09-24T11:46:30.043Z,50.62
2022-09-24T11:47:29.888Z,50.62
2022-09-24T11:48:29.901Z,50.62
2022-09-24T11:49:29.886Z,50.62
2022-09-24T11:50:29.860Z,50.62
2022-09-24T11:51:29.912Z,50.62
2022-09-24T11:52:29.860Z,50.62
2022-09-24T11:53:29.829Z,50.62
2022-09-24T11:54:29.832Z,50.62
2022-09-24T11:55:29.803Z,50.62
2022-09-24T11:56:29.795Z,50.62
2022-09-24T11:57:29.777Z,45.00
2022-09-24T11:58:29.783Z,45.00
2022-09-24T11:59:29.768Z,39.38
2022-09-24T12:00:29.769Z,39.38
2022-09-24T12:01:29.882Z,33.75
2022-09-24T12:02:29.846Z,33.75
2022-09-24T12:03:29.753Z,33.75
2022-09-24T12:04:29.748Z,28.12
2022-09-24T12:05:29.727Z,28.12
2022-09-24T12:06:29.693Z,28.12
2022-09-24T12:07:29.672Z,28.12
2022-09-24T12:08:29.664Z,28.12
2022-09-24T12:09:29.652Z,28.12
2022-09-24T12:10:29.678Z,28.12
2022-09-24T12:11:29.638Z,28.12
2022-09-24T12:12:29.629Z,28.12
2022-09-24T12:13:29.609Z,28.12
2022-09-24T12:14:29.619Z,28.12
2022-09-24T12:15:29.605Z,33.75
2022-09-24T12:16:29.674Z,33.75
2022-09-24T12:17:29.577Z,33.75
2022-09-24T12:18:29.550Z,39.38
2022-09-24T12:19:29.540Z,39.38
2022-09-24T12:20:29.532Z,45.00
2022-09-24T12:21:29.554Z,45.00
2022-09-24T12:22:29.520Z,45.00
2022-09-24T12:23:29.495Z,45.00
2022-09-24T12:24:29.488Z,45.00
2022-09-24T12:25:29.479Z,45.00
2022-09-24T12:26:29.483Z,50.62
2022-09-24T12:27:29.478Z,50.62
2022-09-24T12:28:29.445Z,50.62
2022-09-24T12:29:29.436Z,50.62
2022-09-24T12:30:29.425Z,50.62
2022-09-24T12:31:29.577Z,45.00
2022-09-24T12:32:29.415Z,45.00
2022-09-24T12:33:29.390Z,33.75
2022-09-24T12:34:29.381Z,39.38
2022-09-24T12:35:29.377Z,39.38
2022-09-24T12:36:29.351Z,39.38
2022-09-24T12:37:29.363Z,45.00
2022-09-24T12:38:29.351Z,45.00
2022-09-24T12:39:29.363Z,50.62
2022-09-24T12:40:29.351Z,50.62
2022-09-24T12:41:29.309Z,50.62
2022-09-24T12:42:29.293Z,50.62
2022-09-24T12:43:29.308Z,50.62
2022-09-24T12:44:29.304Z,50.62
2022-09-24T12:45:29.265Z,50.62
2022-09-24T12:46:29.365Z,50.62
2022-09-24T12:47:29.263Z,45.00
2022-09-24T12:48:29.240Z,45.00
2022-09-24T12:49:29.228Z,39.38
2022-09-24T12:50:29.204Z,33.75
2022-09-24T12:51:29.208Z,33.75
2022-09-24T12:52:29.178Z,28.12
2022-09-24T12:53:29.177Z,28.12
2022-09-24T12:54:29.180Z,28.12
2022-09-24T12:55:29.153Z,28.12
2022-09-24T12:56:29.163Z,28.12
2022-09-24T12:57:29.125Z,28.12
2022-09-24T12:58:29.187Z,33.75
2022-09-24T12:59:29.123Z,33.75
2022-09-24T13:00:29.098Z,39.38
2022-09-24T13:01:29.200Z,39.38
2022-09-24T13:02:29.265Z,45.00
2022-09-24T13:03:29.084Z,50.62
2022-09-24T13:04:29.084Z,50.62